Time;durP1;ratioP1;P1;durP2;ratioP2;P2;SDS_P1;SDS_P2;PMS_P1;PMS_P2;Temp;Humidity;BMP_temperature;BMP_pressure;BME280_temperature;BME280_humidity;BME280_pressure;Samples;Min_cycle;Max_cycle;Signal;HPM_P1;HPM_P2
2022/11/20 00:00:23;;;;;;;40.08;21.95;;;;;;;;;;5097668;28;20059;-75
2022/11/20 00:02:49;;;;;;;43.20;22.45;;;;;;;;;;5095099;28;20442;-76
2022/11/20 00:05:14;;;;;;;45.13;23.48;;;;;;;;;;5076659;28;20052;-76
2022/11/20 00:07:40;;;;;;;41.10;23.33;;;;;;;;;;5059917;28;20048;-76
2022/11/20 00:10:06;;;;;;;41.30;21.55;;;;;;;;;;5094914;28;20124;-76
2022/11/20 00:12:31;;;;;;;37.50;20.98;;;;;;;;;;5059989;28;20035;-76
2022/11/20 00:14:56;;;;;;;33.22;19.25;;;;;;;;;;5085022;28;20031;-76
2022/11/20 00:17:22;;;;;;;38.10;19.55;;;;;;;;;;5076519;28;20445;-76
2022/11/20 00:19:48;;;;;;;43.80;20.35;;;;;;;;;;5076543;28;20063;-75
2022/11/20 00:22:14;;;;;;;37.10;19.45;;;;;;;;;;5076403;28;20050;-76
2022/11/20 00:24:39;;;;;;;34.55;19.80;;;;;;;;;;5076446;28;20352;-77
2022/11/20 00:27:05;;;;;;;36.22;18.75;;;;;;;;;;5075983;28;20038;-76
2022/11/20 00:29:30;;;;;;;36.10;17.13;;;;;;;;;;5059605;28;20028;-76
2022/11/20 00:31:55;;;;;;;30.88;16.48;;;;;;;;;;5076400;28;20074;-76
2022/11/20 00:34:21;;;;;;;37.83;17.45;;;;;;;;;;5093783;28;20074;-76
2022/11/20 00:36:46;;;;;;;31.73;17.00;;;;;;;;;;5059726;28;20028;-77
2022/11/20 00:39:12;;;;;;;33.08;17.80;;;;;;;;;;5076712;28;20028;-77
2022/11/20 00:41:37;;;;;;;36.20;18.70;;;;;;;;;;5094067;28;20180;-76
2022/11/20 00:44:02;;;;;;;35.45;18.52;;;;;;;;;;5076145;28;20024;-77
2022/11/20 00:46:28;;;;;;;34.10;18.50;;;;;;;;;;5059089;28;20097;-77
2022/11/20 00:48:53;;;;;;;37.33;18.55;;;;;;;;;;5094243;28;20369;-77
2022/11/20 00:51:20;;;;;;;39.03;18.65;;;;;;;;;;5076290;28;20024;-77
2022/11/20 00:53:46;;;;;;;38.15;18.77;;;;;;;;;;5042910;28;20422;-77
2022/11/20 00:56:33;;;;;;;42.78;20.23;;;;;;;;;;5093844;28;20114;-77
2022/11/20 00:58:59;;;;;;;43.00;19.77;;;;;;;;;;5076039;28;20346;-77
2022/11/20 01:01:25;;;;;;;41.15;19.98;;;;;;;;;;5076263;28;20036;-77
2022/11/20 01:03:52;;;;;;;40.97;20.00;;;;;;;;;;5076127;28;20189;-77
2022/11/20 01:06:24;;;;;;;40.65;19.88;;;;;;;;;;5093914;28;20032;-77
2022/11/20 01:08:50;;;;;;;38.30;19.67;;;;;;;;;;5075710;28;20117;-78
2022/11/20 01:11:21;;;;;;;40.97;21.30;;;;;;;;;;5059609;28;20024;-76
2022/11/20 01:13:47;;;;;;;45.42;23.60;;;;;;;;;;5075883;28;20547;-77
2022/11/20 01:16:13;;;;;;;43.22;22.77;;;;;;;;;;5075966;28;20020;-77
2022/11/20 01:18:41;;;;;;;47.40;24.33;;;;;;;;;;5076165;28;20477;-77
2022/11/20 01:21:11;;;;;;;49.35;23.77;;;;;;;;;;5076716;28;20015;-77
2022/11/20 01:23:37;;;;;;;;;;;;;;;;;;5060328;28;20022;-77
2022/11/20 01:26:04;;;;;;;48.35;24.05;;;;;;;;;;5059905;28;19912;-77
2022/11/20 01:28:30;;;;;;;52.55;24.30;;;;;;;;;;5094207;28;20036;-77
2022/11/20 01:30:55;;;;;;;46.67;24.23;;;;;;;;;;5059108;28;20350;-77
2022/11/20 01:33:21;;;;;;;48.50;25.00;;;;;;;;;;5093680;28;20031;-77
2022/11/20 01:35:46;;;;;;;48.95;25.75;;;;;;;;;;5093726;28;20027;-77
2022/11/20 01:38:11;;;;;;;46.65;25.73;;;;;;;;;;5075537;28;20024;-76
2022/11/20 01:40:37;;;;;;;49.92;26.40;;;;;;;;;;5059078;28;20020;-78
2022/11/20 01:43:21;;;;;;;49.22;26.63;;;;;;;;;;5075629;28;20035;-76
2022/11/20 01:45:47;;;;;;;58.53;28.17;;;;;;;;;;5077358;28;20079;-77
2022/11/20 01:48:13;;;;;;;59.20;29.88;;;;;;;;;;5097731;28;20071;-77
2022/11/20 01:50:38;;;;;;;63.17;31.17;;;;;;;;;;5046299;28;20035;-77
2022/11/20 01:53:05;;;;;;;77.07;34.60;;;;;;;;;;5062323;28;20032;-77
2022/11/20 01:55:32;;;;;;;71.07;33.65;;;;;;;;;;5063205;28;20346;-77
2022/11/20 01:57:58;;;;;;;78.18;34.38;;;;;;;;;;5063357;28;20052;-76
2022/11/20 02:00:23;;;;;;;77.07;34.22;;;;;;;;;;5046128;28;20055;-76
2022/11/20 02:02:56;;;;;;;76.70;34.95;;;;;;;;;;5079482;28;20100;-76
2022/11/20 02:05:23;;;;;;;71.72;33.47;;;;;;;;;;5062863;28;20026;-77
2022/11/20 02:07:49;;;;;;;79.47;36.10;;;;;;;;;;5078812;28;20119;-76
2022/11/20 02:10:14;;;;;;;86.75;37.67;;;;;;;;;;5062271;28;20457;-77
2022/11/20 02:15:24;;;;;;;85.25;39.17;;;;;;;;;;5067728;28;20031;-76
2022/11/20 02:17:49;;;;;;;86.65;40.60;;;;;;;;;;5079843;28;20124;-77
2022/11/20 02:20:14;;;;;;;88.20;40.95;;;;;;;;;;5078967;28;20066;-77
2022/11/20 02:23:03;;;;;;;95.53;42.22;;;;;;;;;;5078855;28;20020;-77
2022/11/20 02:25:28;;;;;;;96.15;42.30;;;;;;;;;;5045846;28;20031;-77
2022/11/20 02:27:53;;;;;;;88.63;40.80;;;;;;;;;;5078534;28;20032;-77
2022/11/20 02:30:19;;;;;;;89.70;40.05;;;;;;;;;;5078890;28;20031;-78
2022/11/20 02:32:44;;;;;;;90.07;41.58;;;;;;;;;;5078584;28;20099;-77
2022/11/20 02:35:30;;;;;;;92.65;41.45;;;;;;;;;;5097069;28;20028;-77
2022/11/20 02:38:00;;;;;;;92.13;43.22;;;;;;;;;;5096320;28;20028;-76
2022/11/20 02:40:25;;;;;;;93.82;43.45;;;;;;;;;;5045397;28;20036;-77
2022/11/20 02:42:55;;;;;;;92.03;42.33;;;;;;;;;;5078438;28;20063;-77
2022/11/20 02:45:20;;;;;;;88.97;42.35;;;;;;;;;;5061800;28;20092;-77
2022/11/20 02:47:46;;;;;;;89.25;41.85;;;;;;;;;;5096366;28;20751;-77
2022/11/20 02:50:11;;;;;;;93.75;41.88;;;;;;;;;;5096209;28;20119;-77
2022/11/20 02:52:37;;;;;;;92.47;41.85;;;;;;;;;;5078620;28;20024;-77
2022/11/20 02:55:03;;;;;;;98.35;44.40;;;;;;;;;;5096421;28;20024;-77
2022/11/20 02:57:28;;;;;;;98.28;43.70;;;;;;;;;;5096092;28;20039;-77
2022/11/20 02:59:53;;;;;;;97.50;44.05;;;;;;;;;;5078117;28;20071;-77
2022/11/20 03:02:19;;;;;;;99.93;42.85;;;;;;;;;;5096741;28;20070;-77
2022/11/20 03:04:44;;;;;;;109.03;45.28;;;;;;;;;;5065040;28;20028;-77
2022/11/20 03:07:10;;;;;;;100.43;42.72;;;;;;;;;;5077866;28;20031;-77
2022/11/20 03:09:35;;;;;;;104.10;44.25;;;;;;;;;;5061277;28;20433;-77
2022/11/20 03:12:01;;;;;;;100.55;46.15;;;;;;;;;;5077972;28;20024;-77
2022/11/20 03:14:26;;;;;;;108.38;47.20;;;;;;;;;;5097582;28;20358;-77
2022/11/20 03:16:52;;;;;;;105.60;45.55;;;;;;;;;;5097552;28;20039;-77
2022/11/20 03:19:17;;;;;;;112.32;47.17;;;;;;;;;;5061484;28;20136;-77
2022/11/20 03:21:43;;;;;;;106.95;46.67;;;;;;;;;;5097570;28;20043;-77
2022/11/20 03:24:08;;;;;;;105.72;46.53;;;;;;;;;;5100125;28;20434;-77
2022/11/20 03:26:34;;;;;;;100.18;46.10;;;;;;;;;;5098207;28;20468;-77
2022/11/20 03:29:00;;;;;;;102.13;45.50;;;;;;;;;;5095592;28;20112;-77
2022/11/20 03:31:31;;;;;;;109.50;45.05;;;;;;;;;;5095459;28;20032;-77
2022/11/20 03:33:57;;;;;;;102.07;44.78;;;;;;;;;;5077760;28;20054;-77
2022/11/20 03:36:23;;;;;;;101.20;45.72;;;;;;;;;;5077415;28;20031;-78
2022/11/20 03:38:48;;;;;;;100.75;47.30;;;;;;;;;;5077333;28;20446;-77
2022/11/20 03:41:19;;;;;;;98.03;44.47;;;;;;;;;;5095354;28;20035;-77
2022/11/20 03:43:58;;;;;;;104.07;45.47;;;;;;;;;;5102438;28;20043;-77
2022/11/20 03:46:24;;;;;;;108.18;46.63;;;;;;;;;;5095228;28;20032;-77
2022/11/20 03:48:49;;;;;;;102.22;46.03;;;;;;;;;;5094908;28;20024;-77
2022/11/20 03:51:19;;;;;;;95.53;44.78;;;;;;;;;;5077325;28;20414;-77
2022/11/20 03:53:46;;;;;;;102.25;45.80;;;;;;;;;;5044109;28;20043;-77
2022/11/20 03:56:12;;;;;;;94.20;43.95;;;;;;;;;;5060398;28;20059;-78
2022/11/20 03:58:40;;;;;;;113.03;48.38;;;;;;;;;;5095216;28;20093;-77
2022/11/20 04:01:13;;;;;;;98.45;47.13;;;;;;;;;;5077860;28;20043;-77
2022/11/20 04:03:39;;;;;;;98.30;45.42;;;;;;;;;;5076776;28;20024;-78
2022/11/20 04:06:06;;;;;;;98.05;44.85;;;;;;;;;;5060230;28;20023;-77
2022/11/20 04:08:31;;;;;;;97.30;45.03;;;;;;;;;;5076355;28;20035;-77
2022/11/20 04:10:57;;;;;;;97.10;45.38;;;;;;;;;;5060271;28;20032;-77
2022/11/20 04:13:22;;;;;;;95.28;44.85;;;;;;;;;;5059939;28;20370;-78
2022/11/20 04:15:47;;;;;;;91.25;43.92;;;;;;;;;;5059987;28;20408;-77
2022/11/20 04:18:13;;;;;;;93.13;43.17;;;;;;;;;;5059372;28;20127;-77
2022/11/20 04:20:38;;;;;;;102.80;43.50;;;;;;;;;;5043428;28;20442;-77
2022/11/20 04:23:04;;;;;;;101.10;45.00;;;;;;;;;;5076544;28;20461;-76
2022/11/20 04:25:30;;;;;;;98.50;43.63;;;;;;;;;;5076446;28;20024;-77
2022/11/20 04:27:56;;;;;;;93.55;42.15;;;;;;;;;;5076467;28;20039;-77
2022/11/20 04:30:21;;;;;;;98.43;42.70;;;;;;;;;;5043071;28;20036;-78
2022/11/20 04:32:47;;;;;;;103.07;44.22;;;;;;;;;;5059365;28;20462;-78
2022/11/20 04:35:12;;;;;;;110.07;45.67;;;;;;;;;;5076488;28;20024;-76
2022/11/20 04:37:38;;;;;;;98.25;42.60;;;;;;;;;;5059515;28;20054;-77
2022/11/20 04:40:03;;;;;;;99.20;43.30;;;;;;;;;;5060017;28;20024;-77
2022/11/20 04:42:29;;;;;;;103.28;45.28;;;;;;;;;;5076272;28;20357;-77
2022/11/20 04:44:55;;;;;;;110.63;46.55;;;;;;;;;;5076381;28;20028;-77
2022/11/20 04:47:20;;;;;;;111.70;48.30;;;;;;;;;;5075667;28;20076;-77
2022/11/20 04:49:46;;;;;;;103.57;44.72;;;;;;;;;;5076492;28;20029;-77
2022/11/20 04:52:11;;;;;;;118.45;45.80;;;;;;;;;;5076144;28;20448;-78
2022/11/20 04:54:37;;;;;;;108.78;47.15;;;;;;;;;;5094288;28;20067;-77
2022/11/20 04:57:02;;;;;;;113.00;46.80;;;;;;;;;;5042823;28;20079;-76
2022/11/20 04:59:28;;;;;;;111.15;46.78;;;;;;;;;;5076098;28;20028;-77
2022/11/20 05:01:53;;;;;;;101.47;43.33;;;;;;;;;;5093752;28;20476;-77
2022/11/20 05:04:18;;;;;;;104.10;42.90;;;;;;;;;;5075935;28;20484;-77
2022/11/20 05:06:45;;;;;;;109.07;44.25;;;;;;;;;;5093964;28;20480;-77
2022/11/20 05:09:11;;;;;;;112.47;45.17;;;;;;;;;;5094080;28;20035;-77
2022/11/20 05:11:37;;;;;;;121.10;48.00;;;;;;;;;;5094001;28;20453;-78
2022/11/20 05:14:02;;;;;;;112.35;44.92;;;;;;;;;;5093796;28;20032;-77
2022/11/20 05:16:27;;;;;;;111.38;45.67;;;;;;;;;;5058647;28;20115;-77
2022/11/20 05:18:54;;;;;;;116.50;47.55;;;;;;;;;;5094047;28;20024;-77
2022/11/20 05:21:19;;;;;;;117.00;46.60;;;;;;;;;;5079985;28;20024;-76
2022/11/20 05:23:45;;;;;;;110.10;45.33;;;;;;;;;;5098389;28;20024;-77
2022/11/20 05:26:18;;;;;;;105.95;43.67;;;;;;;;;;5063190;28;20028;-77
2022/11/20 05:28:43;;;;;;;96.72;42.25;;;;;;;;;;5063208;28;20397;-77
2022/11/20 05:31:13;;;;;;;99.07;42.72;;;;;;;;;;5046241;28;20092;-77
2022/11/20 05:33:43;;;;;;;93.55;40.97;;;;;;;;;;5063674;28;20063;-76
2022/11/20 05:36:09;;;;;;;105.18;42.97;;;;;;;;;;5079736;28;20046;-77
2022/11/20 05:38:34;;;;;;;99.47;41.20;;;;;;;;;;5098178;28;20454;-76
2022/11/20 05:41:07;;;;;;;110.55;44.33;;;;;;;;;;5063162;28;20077;-77
2022/11/20 05:43:37;;;;;;;113.78;44.03;;;;;;;;;;5046434;28;20097;-77
2022/11/20 05:46:03;;;;;;;107.22;42.92;;;;;;;;;;5079153;28;20181;-78
2022/11/20 05:48:28;;;;;;;108.10;43.90;;;;;;;;;;5062800;28;20031;-77
2022/11/20 05:50:54;;;;;;;97.45;40.15;;;;;;;;;;5079338;28;20020;-77
2022/11/20 05:53:19;;;;;;;100.25;41.72;;;;;;;;;;5079376;28;20114;-77
2022/11/20 05:55:45;;;;;;;92.85;38.45;;;;;;;;;;5046144;28;20130;-76
2022/11/20 05:58:10;;;;;;;89.03;37.85;;;;;;;;;;5097521;28;20122;-77
2022/11/20 06:00:36;;;;;;;86.53;38.00;;;;;;;;;;5062440;28;20085;-77
2022/11/20 06:03:01;;;;;;;95.28;40.35;;;;;;;;;;5079462;28;20032;-77
2022/11/20 06:05:27;;;;;;;90.35;40.65;;;;;;;;;;5062767;28;20441;-78
2022/11/20 06:07:52;;;;;;;92.95;39.05;;;;;;;;;;5046073;28;20135;-76
2022/11/20 06:10:18;;;;;;;78.13;36.35;;;;;;;;;;5049017;28;20039;-78
2022/11/20 06:12:43;;;;;;;86.72;36.60;;;;;;;;;;5079904;28;20494;-76
2022/11/20 06:15:09;;;;;;;83.88;37.42;;;;;;;;;;5062184;28;20344;-76
2022/11/20 06:17:34;;;;;;;85.13;36.00;;;;;;;;;;5046396;28;20460;-77
2022/11/20 06:20:00;;;;;;;79.38;37.05;;;;;;;;;;5078865;28;20024;-77
2022/11/20 06:22:25;;;;;;;88.65;39.15;;;;;;;;;;5061997;28;20063;-77
2022/11/20 06:24:51;;;;;;;84.90;38.45;;;;;;;;;;5096833;28;20028;-77
2022/11/20 06:27:16;;;;;;;93.50;38.10;;;;;;;;;;5078710;28;20035;-79
2022/11/20 06:29:41;;;;;;;87.13;35.88;;;;;;;;;;5044977;28;20039;-77
2022/11/20 06:32:07;;;;;;;81.10;36.75;;;;;;;;;;5078078;28;20047;-77
2022/11/20 06:34:32;;;;;;;85.50;36.90;;;;;;;;;;5061978;28;20423;-77
2022/11/20 06:36:58;;;;;;;85.07;35.30;;;;;;;;;;5096921;28;20040;-77
2022/11/20 06:39:23;;;;;;;91.07;36.88;;;;;;;;;;5061830;28;20028;-79
2022/11/20 06:41:49;;;;;;;99.43;38.92;;;;;;;;;;5062025;28;20089;-78
2022/11/20 06:44:14;;;;;;;89.07;39.67;;;;;;;;;;5061581;28;20456;-79
2022/11/20 06:46:39;;;;;;;93.13;39.30;;;;;;;;;;5096216;28;20469;-79
2022/11/20 06:49:05;;;;;;;85.22;38.22;;;;;;;;;;5096419;28;20413;-76
2022/11/20 06:51:31;;;;;;;88.40;38.80;;;;;;;;;;5078545;28;20048;-76
2022/11/20 06:53:57;;;;;;;94.80;40.08;;;;;;;;;;5078499;28;20446;-78
2022/11/20 06:56:22;;;;;;;92.53;39.40;;;;;;;;;;5078380;28;20118;-79
2022/11/20 06:58:48;;;;;;;92.95;37.92;;;;;;;;;;5096231;28;20059;-76
2022/11/20 07:01:14;;;;;;;92.80;39.90;;;;;;;;;;5096133;28;20031;-76
2022/11/20 07:03:40;;;;;;;87.13;37.17;;;;;;;;;;5078021;28;20047;-77
2022/11/20 07:06:05;;;;;;;88.43;37.97;;;;;;;;;;5061474;28;20063;-75
2022/11/20 07:08:31;;;;;;;85.57;37.33;;;;;;;;;;5078413;28;20063;-77
2022/11/20 07:10:58;;;;;;;80.30;35.40;;;;;;;;;;5096810;28;20395;-76
2022/11/20 07:13:23;;;;;;;86.60;37.78;;;;;;;;;;5050185;28;20032;-77
2022/11/20 07:15:49;;;;;;;83.95;38.15;;;;;;;;;;5095875;28;20353;-76
2022/11/20 07:18:14;;;;;;;83.72;37.67;;;;;;;;;;5077912;28;20024;-76
2022/11/20 07:20:40;;;;;;;86.10;40.25;;;;;;;;;;5095629;28;20024;-77
2022/11/20 07:23:05;;;;;;;80.57;35.88;;;;;;;;;;5095749;28;20028;-77
2022/11/20 07:25:31;;;;;;;79.55;38.42;;;;;;;;;;5095708;28;20119;-78
2022/11/20 07:27:57;;;;;;;75.45;36.05;;;;;;;;;;5077385;28;20160;-78
2022/11/20 07:30:23;;;;;;;81.72;36.83;;;;;;;;;;5095506;28;20452;-76
2022/11/20 07:32:52;;;;;;;72.82;34.13;;;;;;;;;;5095529;28;20032;-76
2022/11/20 07:35:17;;;;;;;67.20;35.13;;;;;;;;;;5077581;28;20024;-77
2022/11/20 07:37:43;;;;;;;63.15;32.85;;;;;;;;;;5060905;28;20468;-77
2022/11/20 07:40:09;;;;;;;69.60;34.65;;;;;;;;;;5077284;28;20032;-77
2022/11/20 07:42:34;;;;;;;62.90;32.47;;;;;;;;;;5076945;28;20055;-76
2022/11/20 07:44:59;;;;;;;59.10;31.08;;;;;;;;;;5060544;28;20024;-76
2022/11/20 07:47:25;;;;;;;63.95;33.13;;;;;;;;;;5094932;28;20043;-76
2022/11/20 07:49:50;;;;;;;54.90;30.77;;;;;;;;;;5095222;28;20028;-77
2022/11/20 07:52:16;;;;;;;59.95;31.05;;;;;;;;;;5076549;28;20092;-77
2022/11/20 07:54:41;;;;;;;56.00;30.13;;;;;;;;;;5060137;28;20073;-77
2022/11/20 07:57:06;;;;;;;63.05;32.95;;;;;;;;;;5095638;28;20067;-76
2022/11/20 07:59:32;;;;;;;59.08;32.95;;;;;;;;;;5095022;28;20108;-77
2022/11/20 08:01:57;;;;;;;56.50;31.80;;;;;;;;;;5094899;28;20365;-77
2022/11/20 08:04:23;;;;;;;64.97;29.52;;;;;;;;;;5060433;28;20024;-79
2022/11/20 08:06:48;;;;;;;54.22;29.27;;;;;;;;;;5094105;28;20036;-78
2022/11/20 08:09:14;;;;;;;57.00;28.70;;;;;;;;;;5060051;28;20034;-79
2022/11/20 08:14:23;;;;;;;58.55;33.50;;;;;;;;;;5079750;28;20464;-78
2022/11/20 08:16:49;;;;;;;63.72;35.05;;;;;;;;;;5096204;28;20024;-78
2022/11/20 08:19:16;;;;;;;71.93;37.45;;;;;;;;;;5076795;28;20034;-78
2022/11/20 08:21:41;;;;;;;72.80;37.63;;;;;;;;;;5059974;28;20024;-79
2022/11/20 08:24:07;;;;;;;69.13;35.28;;;;;;;;;;5059601;28;20030;-77
2022/11/20 08:26:33;;;;;;;69.13;35.20;;;;;;;;;;5059885;28;20028;-78
2022/11/20 08:28:58;;;;;;;71.72;34.58;;;;;;;;;;5076279;28;20035;-78
2022/11/20 08:31:25;;;;;;;79.50;33.95;;;;;;;;;;5043111;28;20046;-78
2022/11/20 08:33:51;;;;;;;60.65;31.90;;;;;;;;;;5076674;28;20052;-78
2022/11/20 08:36:16;;;;;;;52.17;29.35;;;;;;;;;;5076380;28;20167;-79
2022/11/20 08:38:42;;;;;;;62.25;30.23;;;;;;;;;;5076975;28;20092;-77
2022/11/20 08:41:26;;;;;;;58.05;31.33;;;;;;;;;;5076256;28;20070;-77
2022/11/20 08:43:59;;;;;;;57.20;30.88;;;;;;;;;;5064936;28;20079;-77
2022/11/20 08:46:26;;;;;;;61.00;31.00;;;;;;;;;;5042866;28;20350;-78
2022/11/20 08:48:51;;;;;;;64.40;32.47;;;;;;;;;;5059189;28;20028;-79
2022/11/20 08:51:17;;;;;;;74.80;37.13;;;;;;;;;;5075295;28;20051;-79
2022/11/20 08:53:43;;;;;;;69.75;34.83;;;;;;;;;;5059103;28;20032;-79
2022/11/20 08:56:10;;;;;;;64.85;34.85;;;;;;;;;;5076475;28;20024;-79
2022/11/20 08:58:36;;;;;;;68.90;35.22;;;;;;;;;;5078267;28;20028;-79
2022/11/20 09:01:02;;;;;;;76.90;37.83;;;;;;;;;;5076479;28;20118;-79
2022/11/20 09:03:28;;;;;;;72.93;35.97;;;;;;;;;;5094147;28;20110;-78
2022/11/20 09:06:00;;;;;;;72.25;34.63;;;;;;;;;;5094213;28;20058;-78
2022/11/20 09:08:25;;;;;;;86.25;39.20;;;;;;;;;;5076530;28;20032;-78
2022/11/20 09:10:52;;;;;;;81.47;39.65;;;;;;;;;;5076094;28;20027;-79
2022/11/20 09:13:17;;;;;;;99.75;44.60;;;;;;;;;;5059725;28;20028;-78
2022/11/20 09:15:43;;;;;;;87.70;42.00;;;;;;;;;;5076567;28;20085;-78
2022/11/20 09:18:08;;;;;;;69.30;37.05;;;;;;;;;;5084965;28;20024;-77
2022/11/20 09:20:35;;;;;;;64.65;34.15;;;;;;;;;;5095042;28;20016;-78
2022/11/20 09:23:02;;;;;;;58.58;30.88;;;;;;;;;;5075981;28;20020;-77
2022/11/20 09:25:28;;;;;;;52.92;27.67;;;;;;;;;;5076031;28;20036;-83
2022/11/20 09:28:00;;;;;;;47.65;26.38;;;;;;;;;;5058946;28;20032;-80
2022/11/20 09:30:26;;;;;;;51.92;27.90;;;;;;;;;;5075788;28;20166;-80
2022/11/20 09:32:52;;;;;;;47.40;28.42;;;;;;;;;;5059071;28;20067;-79
2022/11/20 09:35:18;;;;;;;46.78;26.88;;;;;;;;;;5075827;28;20024;-80
2022/11/20 09:37:44;;;;;;;47.17;26.08;;;;;;;;;;5093411;28;20306;-80
2022/11/20 09:40:21;;;;;;;47.95;26.35;;;;;;;;;;5093689;28;20076;-80
2022/11/20 09:43:14;;;;;;;53.13;25.25;;;;;;;;;;5093929;28;20020;-78
2022/11/20 09:46:01;;;;;;;40.45;24.05;;;;;;;;;;5093791;28;20362;-80
2022/11/20 09:48:45;;;;;;;44.85;23.92;;;;;;;;;;5075391;28;20040;-78
2022/11/20 09:51:38;;;;;;;41.58;24.55;;;;;;;;;;5093255;28;20515;-80
2022/11/20 09:54:17;;;;;;;41.17;23.85;;;;;;;;;;5093588;28;20035;-80
2022/11/20 09:56:45;;;;;;;41.27;23.00;;;;;;;;;;5093639;28;20032;-80
2022/11/20 09:59:29;;;;;;;45.22;24.15;;;;;;;;;;5075767;28;20024;-80
2022/11/20 10:01:54;;;;;;;46.35;24.83;;;;;;;;;;5088603;28;20028;-80
2022/11/20 10:04:20;;;;;;;48.50;24.85;;;;;;;;;;5080017;28;20024;-81
2022/11/20 10:07:04;;;;;;;46.03;23.63;;;;;;;;;;5076733;28;20090;-80
2022/11/20 10:09:32;;;;;;;42.33;24.30;;;;;;;;;;5097166;28;20438;-80
2022/11/20 10:12:39;;;;;;;42.10;22.73;;;;;;;;;;5097071;28;20031;-80
2022/11/20 10:15:12;;;;;;;46.55;21.30;;;;;;;;;;5041347;28;20111;-80
2022/11/20 10:18:03;;;;;;;42.47;23.88;;;;;;;;;;5078818;28;20028;-79
2022/11/20 10:20:47;;;;;;;155.43;65.82;;;;;;;;;;5078617;28;20022;-79
2022/11/20 10:23:19;;;;;;;67.03;34.42;;;;;;;;;;5094193;28;20044;-79
2022/11/20 10:26:00;;;;;;;49.00;27.48;;;;;;;;;;5096862;28;20067;-80
2022/11/20 10:29:14;;;;;;;65.93;33.47;;;;;;;;;;5080672;28;20082;-79
2022/11/20 10:31:40;;;;;;;63.33;29.42;;;;;;;;;;4995007;28;20039;-79
2022/11/20 10:34:37;;;;;;;63.97;32.65;;;;;;;;;;5058950;28;20085;-79
2022/11/20 10:37:06;;;;;;;56.83;28.02;;;;;;;;;;5061742;28;20039;-79
2022/11/20 10:40:09;;;;;;;45.83;26.60;;;;;;;;;;5060790;28;20169;-80
2022/11/20 10:42:43;;;;;;;43.88;26.10;;;;;;;;;;5095105;28;20573;-79
2022/11/20 10:45:23;;;;;;;48.25;25.33;;;;;;;;;;5085391;28;20085;-80
2022/11/20 10:47:49;;;;;;;;;;;;;;;;;;5095662;28;20036;-81
2022/11/20 10:50:18;;;;;;;43.30;25.85;;;;;;;;;;5076807;28;20318;-80
2022/11/20 10:53:00;;;;;;;45.97;25.40;;;;;;;;;;5043978;28;20054;-80
2022/11/20 10:55:41;;;;;;;40.70;22.92;;;;;;;;;;5061154;28;20023;-80
2022/11/20 10:58:14;;;;;;;36.97;22.05;;;;;;;;;;5078130;28;20108;-80
2022/11/20 11:00:40;;;;;;;45.78;25.33;;;;;;;;;;5096185;28;20034;-80
2022/11/20 11:03:22;;;;;;;39.88;23.65;;;;;;;;;;5078169;28;20118;-80
2022/11/20 11:05:54;;;;;;;48.17;26.90;;;;;;;;;;5078423;28;20071;-80
2022/11/20 11:08:19;;;;;;;51.78;29.15;;;;;;;;;;5077884;28;20368;-80
2022/11/20 11:10:56;;;;;;;53.05;29.02;;;;;;;;;;5061351;28;20114;-80
2022/11/20 11:13:26;;;;;;;50.47;28.40;;;;;;;;;;5061388;28;20055;-80
2022/11/20 11:15:52;;;;;;;51.67;28.27;;;;;;;;;;5077571;28;20457;-79
2022/11/20 11:18:28;;;;;;;49.00;28.05;;;;;;;;;;5077713;28;20103;-79
2022/11/20 11:20:54;;;;;;;47.85;27.80;;;;;;;;;;5095841;28;20028;-81
2022/11/20 11:23:41;;;;;;;45.70;25.10;;;;;;;;;;5078016;28;20031;-80
2022/11/20 11:26:28;;;;;;;46.40;28.70;;;;;;;;;;5077681;28;20028;-80
2022/11/20 11:29:00;;;;;;;50.90;26.90;;;;;;;;;;5080309;28;20445;-79
2022/11/20 11:31:31;;;;;;;45.95;26.83;;;;;;;;;;5061005;28;20020;-81
2022/11/20 11:34:16;;;;;;;50.55;27.95;;;;;;;;;;5077210;28;20414;-80
2022/11/20 11:36:41;;;;;;;43.67;25.42;;;;;;;;;;5061346;28;20365;-80
2022/11/20 11:39:13;;;;;;;43.45;23.35;;;;;;;;;;5060794;28;20028;-80
2022/11/20 11:41:39;;;;;;;42.80;23.27;;;;;;;;;;5077509;28;20089;-81
2022/11/20 11:47:51;;;;;;;54.20;22.13;;;;;;;;;;5079647;28;20047;-79
2022/11/20 11:50:18;;;;;;;43.05;21.42;;;;;;;;;;5094574;28;20044;-81
2022/11/20 11:53:13;;;;;;;42.35;22.05;;;;;;;;;;5095169;28;20116;-81
2022/11/20 11:55:58;;;;;;;44.25;22.27;;;;;;;;;;5051436;28;20043;-80
2022/11/20 11:58:36;;;;;;;39.67;21.13;;;;;;;;;;5060620;28;20028;-81
2022/11/20 12:01:14;;;;;;;60.45;32.05;;;;;;;;;;5095211;28;20028;-80
2022/11/20 12:03:42;;;;;;;40.90;23.38;;;;;;;;;;5095192;28;20074;-80
2022/11/20 12:06:13;;;;;;;53.50;23.65;;;;;;;;;;5060909;28;20127;-81
2022/11/20 12:08:46;;;;;;;;;;;;;;;;;;5045122;28;20039;-80
2022/11/20 12:11:16;;;;;;;35.22;19.08;;;;;;;;;;5076901;28;20241;-81
2022/11/20 12:13:45;;;;;;;60.03;30.17;;;;;;;;;;5060727;28;20127;-80
2022/11/20 12:16:13;;;;;;;43.80;22.88;;;;;;;;;;5076504;28;20056;-80
2022/11/20 12:18:38;;;;;;;55.05;29.75;;;;;;;;;;5043908;28;20063;-79
2022/11/20 12:21:20;;;;;;;55.00;29.05;;;;;;;;;;5059346;28;20060;-80
2022/11/20 12:24:04;;;;;;;46.85;22.92;;;;;;;;;;5076326;28;20516;-78
2022/11/20 12:26:54;;;;;;;42.92;22.75;;;;;;;;;;5105831;28;20093;-78
2022/11/20 12:29:37;;;;;;;42.10;24.13;;;;;;;;;;5094151;28;20119;-79
2022/11/20 12:32:16;;;;;;;42.10;22.88;;;;;;;;;;5096545;28;20028;-79
2022/11/20 12:35:00;;;;;;;47.25;21.75;;;;;;;;;;5094396;28;20028;-78
2022/11/20 12:37:42;;;;;;;42.75;21.38;;;;;;;;;;5094408;28;20380;-79
2022/11/20 12:40:32;;;;;;;40.65;21.13;;;;;;;;;;5076311;28;20035;-80
2022/11/20 12:46:34;;;;;;;40.08;22.73;;;;;;;;;;5094095;28;20105;-80
2022/11/20 12:49:21;;;;;;;42.83;21.90;;;;;;;;;;5094013;28;20039;-79
2022/11/20 12:51:51;;;;;;;49.00;24.77;;;;;;;;;;5060153;28;20047;-80
2022/11/20 12:54:30;;;;;;;44.50;24.50;;;;;;;;;;5094118;28;20024;-79
2022/11/20 12:57:07;;;;;;;47.30;26.75;;;;;;;;;;5076404;28;20070;-80
2022/11/20 12:59:58;;;;;;;46.55;24.63;;;;;;;;;;5075802;28;20059;-79
2022/11/20 13:02:42;;;;;;;;;;;;;;;;;;5077603;28;20048;-79
2022/11/20 13:05:18;;;;;;;46.33;25.88;;;;;;;;;;5094173;28;19919;-80
2022/11/20 13:07:44;;;;;;;54.63;26.85;;;;;;;;;;5059368;28;20028;-80
2022/11/20 13:10:35;;;;;;;44.80;26.17;;;;;;;;;;5042957;28;20031;-79
2022/11/20 13:13:13;;;;;;;51.90;27.77;;;;;;;;;;5077708;28;20364;-80
2022/11/20 13:15:42;;;;;;;58.67;32.58;;;;;;;;;;5094938;28;20028;-80
2022/11/20 13:18:11;;;;;;;54.00;30.58;;;;;;;;;;5075816;28;20035;-80
2022/11/20 13:20:36;;;;;;;48.15;25.42;;;;;;;;;;5059627;28;20044;-80
2022/11/20 13:23:02;;;;;;;48.40;27.33;;;;;;;;;;5042304;28;20534;-80
2022/11/20 13:25:31;;;;;;;54.03;29.00;;;;;;;;;;5075947;28;20035;-79
2022/11/20 13:27:58;;;;;;;49.43;27.53;;;;;;;;;;5059428;28;20036;-80
2022/11/20 13:30:28;;;;;;;53.85;26.77;;;;;;;;;;5059282;28;20399;-79
2022/11/20 13:33:07;;;;;;;49.58;25.13;;;;;;;;;;5062437;28;20016;-80
2022/11/20 13:35:38;;;;;;;44.08;25.20;;;;;;;;;;5081925;28;20047;-79
2022/11/20 13:38:12;;;;;;;46.38;24.33;;;;;;;;;;5075943;28;20024;-79
2022/11/20 13:40:58;;;;;;;39.38;23.55;;;;;;;;;;5094985;28;20070;-80
2022/11/20 13:43:27;;;;;;;41.75;22.25;;;;;;;;;;5079109;28;20175;-80
2022/11/20 13:46:03;;;;;;;40.53;21.57;;;;;;;;;;5079472;28;20454;-80
2022/11/20 13:48:34;;;;;;;37.65;21.00;;;;;;;;;;5097751;28;20683;-79
2022/11/20 13:51:22;;;;;;;44.38;24.65;;;;;;;;;;5046941;28;20361;-80
2022/11/20 13:54:26;;;;;;;47.38;26.92;;;;;;;;;;5097551;28;20461;-79
2022/11/20 13:57:14;;;;;;;50.85;27.55;;;;;;;;;;5097454;28;20097;-79
2022/11/20 13:59:48;;;;;;;40.47;20.00;;;;;;;;;;5081471;28;20028;-80
2022/11/20 14:02:14;;;;;;;40.95;21.52;;;;;;;;;;5079662;28;20052;-80
2022/11/20 14:04:43;;;;;;;47.60;24.50;;;;;;;;;;5062606;28;20042;-80
2022/11/20 14:07:08;;;;;;;67.90;35.83;;;;;;;;;;5062545;28;20024;-80
2022/11/20 14:09:34;;;;;;;64.05;33.60;;;;;;;;;;5062407;28;20040;-80
2022/11/20 14:12:01;;;;;;;61.50;30.52;;;;;;;;;;5062655;28;20035;-79
2022/11/20 14:14:27;;;;;;;78.50;44.40;;;;;;;;;;5046068;28;20497;-79
2022/11/20 14:17:03;;;;;;;48.05;26.80;;;;;;;;;;5070743;28;20067;-80
2022/11/20 14:19:30;;;;;;;42.65;24.13;;;;;;;;;;5063701;28;20407;-80
2022/11/20 14:22:21;;;;;;;38.40;23.45;;;;;;;;;;5062621;28;20040;-81
2022/11/20 14:25:03;;;;;;;53.33;29.80;;;;;;;;;;5096796;28;20437;-80
2022/11/20 14:27:28;;;;;;;44.08;24.98;;;;;;;;;;5062377;28;20035;-79
2022/11/20 14:29:54;;;;;;;50.40;30.58;;;;;;;;;;5078743;28;20028;-80
2022/11/20 14:32:22;;;;;;;83.97;44.90;;;;;;;;;;5062004;28;20039;-79
2022/11/20 14:34:48;;;;;;;94.85;50.70;;;;;;;;;;5045715;28;20031;-80
2022/11/20 14:37:19;;;;;;;94.55;48.40;;;;;;;;;;5062326;28;20081;-80
2022/11/20 14:39:50;;;;;;;79.38;43.30;;;;;;;;;;5062257;28;20031;-80
2022/11/20 14:42:17;;;;;;;71.70;41.72;;;;;;;;;;5078362;28;20128;-80